Date,TemperatureHighF,TemperatureAvgF,TemperatureLowF,DewpointHighF,DewpointAvgF,DewpointLowF,HumidityHigh,HumidityAvg,HumidityLow,PressureMaxIn,PressureMinIn,WindSpeedMaxMPH,WindSpeedAvgMPH,GustSpeedMaxMPH,PrecipitationSumIn
2013-5-1,83,74,61,55,51,44,71,48,27,30.06,29.84,5,2,16,0.00
2013-5-2,61,52,41,50,44,38,92,73,58,30.17,30.04,7,3,13,0.04
2013-5-3,55,44,39,55,43,38,99,97,92,30.12,29.80,7,3,16,1.59
2013-5-4,64,57,54,57,55,52,97,91,69,30.01,29.82,4,0,11,0.20
2013-5-5,74,60,50,56,50,40,99,73,32,30.01,29.89,5,1,11,0.00
2013-5-6,74,65,55,53,47,41,84,57,30,30.01,29.92,6,1,13,0.00
2013-5-7,80,68,52,48,42,36,72,41,22,30.01,29.93,1,0,5,0.00
2013-5-8,82,68,51,56,47,42,83,52,25,29.99,29.91,1,0,6,0.00
2013-5-9,69,63,60,61,58,55,97,83,72,29.94,29.85,2,0,7,0.28
2013-5-11,44,42,41,29,29,28,62,58,53,30.12,30.10,0,0,0,0.00
2013-5-12,58,47,34,33,29,24,83,53,29,30.20,30.10,5,1,12,0.00
2013-5-13,71,55,36,41,34,29,86,51,23,30.18,29.93,2,0,10,0.00
2013-5-14,92,73,54,61,52,40,73,51,29,29.93,29.62,7,2,14,0.00
2013-5-15,81,74,64,61,54,46,69,51,30,29.81,29.67,5,1,11,0.01
2013-5-16,83,71,58,61,54,45,94,59,29,29.90,29.79,2,0,6,0.06
2013-5-17,79,71,60,63,58,51,87,65,39,29.93,29.84,3,0,8,0.00
2013-5-18,82,72,64,65,62,60,94,72,50,29.96,29.83,3,0,11,0.00
2013-5-19,87,73,63,70,64,56,89,74,50,29.85,29.62,7,2,17,18.77
2013-5-20,82,70,61,65,60,-100,95,75,46,29.75,29.56,8,2,18,1.14
2013-5-21,79,70,61,63,60,57,95,73,48,29.67,29.61,5,-90,11,0.00
2013-5-22,72,64,58,58,55,52,88,74,51,29.78,29.59,5,2,11,0.01
2013-5-23,65,58,53,55,51,45,96,79,51,30.24,29.77,7,-4,11,0.04
2013-5-24,66,56,42,48,40,34,91,58,30,30.43,30.24,1,-79,5,0.00
2013-5-25,57,51,46,48,43,37,95,76,53,30.38,30.21,2,0,10,0.41
2013-5-26,65,55,50,58,52,47,97,90,76,30.24,29.99,3,0,7,1.92
2013-5-27,70,63,58,66,60,56,99,92,80,30.00,29.74,2,-25,8,0.07
2013-5-28,68,65,63,67,64,61,97,95,93,29.85,29.77,6,2,9,3.20
2013-5-29,84,75,62,69,64,60,95,71,56,29.83,29.73,5,-364,10,0.64
2013-5-30,83,72,62,69,64,59,96,77,59,29.80,29.67,9,-403,19,0.72
2013-5-31,72,66,62,68,63,58,96,91,79,29.83,29.65,4,-390,11,0.30